• Join FlightAware (Why Join?)
  • Login
  • US Flag GB Flag 
13:35 EDT


 

Airport Tracker/Info


-or-


 

Live Flight TrackerFlight Track Log ✈ UAL5887 ✈ 12-Apr-2013 ✈ KORD - CYUL

Flight Track Log - Related Links

Times and Time Zones

All times are in EDT time to prevent confusion due to time zone crossing. See the UAL5887 flight status page for this flight to view local times or setup timezone preferences in your user account.

Time Position Orientation Groundspeed Altitude Reporting Facility
EDT Latitude Longitude Course Direction KTS MPH feet Rate Location/Type
12:04 42.0167 -87.9333 66° East 160 184 3,000  Level Chicago TRACON
12:05 42.0667 -87.9000 26° Northeast 254 292 4,400 1,140 Climbing Chicago TRACON
12:06 42.1347 -87.8158 43° Northeast 265 305 5,700 1,560 Climbing Chicago Center
12:07 42.1911 -87.7428 44° Northeast 278 320 8,300 2,220 Climbing Chicago Center
12:08 42.2189 -87.6436 69° East 295 339 10,300 1,800 Climbing Chicago Center
12:09 42.2178 -87.2132 66° East  Level FlightAware Approximate
12:09 42.2325 -87.5283 81° East 311 358 12,100  Level Chicago Center
12:10 42.2450 -87.4069 82° East 325 374 14,100 2,100 Climbing Chicago Center
12:11 42.2600 -87.2536 82° East 342 394 16,500 2,040 Climbing Chicago Center
12:12 42.2731 -87.1261 82° East 345 397 18,300 1,200 Climbing Chicago Center
12:14 42.2883 -86.8347 86° East 400 460 20,300 960 Climbing Chicago Center
12:15 42.2939 -86.6775 87° East 412 474 21,400 1,080 Climbing Chicago Center
12:16 42.3025 -86.4856 86° East 435 501 22,600 1,020 Climbing Chicago Center
12:17 42.3075 -86.3261 88° East 437 503 23,600 960 Climbing Chicago Center
12:18 42.3133 -86.1625 87° East 439 505 24,600 960 Climbing Chicago Center
12:19 42.3144 -85.9981 89° East 442 509 25,600 1,020 Climbing Chicago Center
12:20 42.3125 -85.8347 91° East 438 504 26,700 1,080 Climbing Chicago Center
12:21 42.3108 -85.6733 91° East 435 501 27,900 1,260 Climbing Chicago Center
12:22 42.3072 -85.4792 91° East 435 501 29,400 1,260 Climbing Chicago Center
12:23 42.3078 -85.3317 90° East 427 491 30,500 1,140 Climbing Cleveland Center
12:24 42.3061 -85.1714 91° East 427 491 31,700 1,200 Climbing Cleveland Center
12:25 42.3019 -85.0083 92° East 427 491 32,900 1,200 Climbing Cleveland Center
12:26 42.2978 -84.8450 92° East 421 484 34,100 1,020 Climbing Cleveland Center
12:27 42.2933 -84.6819 92° East 426 490 35,000 420 Climbing Cleveland Center
12:28 42.2844 -84.5156 94° East 426 490 35,000  Level Cleveland Center
12:29 42.3031 -84.3342 82° East 443 510 35,000  Level Cleveland Center
12:30 42.3297 -84.1503 79° East 480 552 35,000  Level Cleveland Center
12:31 42.3542 -83.9664 80° East 492 566 35,000  Level Cleveland Center
12:32 42.3822 -83.7822 78° East 497 572 35,000  Level Cleveland Center
12:33 42.4081 -83.6008 79° East 497 572 35,000  Level Cleveland Center
12:34 42.4522 -83.4228 71° East 497 572 35,000  Level Cleveland Center
12:35 42.4981 -83.2500 70° East 490 564 35,000  Level Cleveland Center
12:36 42.5478 -83.0747 69° East 490 564 35,000  Level Cleveland Center
12:37 42.5911 -82.9014 71° East 490 564 35,000  Level Cleveland Center
12:38 42.6406 -82.7114 70° East 485 558 35,000  Level Cleveland Center
12:39 42.6853 -82.5350 71° East 485 558 35,000  Level Cleveland Center
12:40 42.7300 -82.3611 71° East 485 558 35,000  Level Cleveland Center
12:41 42.7742 -82.1842 71° East 485 558 35,000  Level Cleveland Center
12:42 42.8006 -82.0800 71° East 485 558 35,000  Level Cleveland Center
12:44 42.9000 -81.6333 73° East 490 564 35,000  Level Toronto Center
12:45 42.9500 -81.4833 65° Northeast 490 564 35,000  Level Toronto Center
12:46 42.9833 -81.2667 78° East 490 564 35,000  Level Toronto Center
12:47 43.0333 -81.1167 65° Northeast 500 575 35,000  Level Toronto Center
12:48 43.1000 -80.9333 63° Northeast 500 575 35,000  Level Toronto Center
12:49 43.1833 -80.7833 53° Northeast 510 587 35,000  Level Toronto Center
12:50 43.2500 -80.6000 63° Northeast 500 575 35,000  Level Toronto Center
12:51 43.3167 -80.4500 59° Northeast 490 564 35,000  Level Toronto Center
12:52 43.3833 -80.2833 61° Northeast 500 575 35,000  Level Toronto Center
12:53 43.4500 -80.1167 61° Northeast 500 575 35,000  Level Toronto Center
12:54 43.5167 -79.9333 63° Northeast 500 575 35,000  Level Toronto Center
12:55 43.5833 -79.7667 61° Northeast 500 575 35,000  Level Toronto Center
12:56 43.6500 -79.6167 58° Northeast 500 575 35,000  Level Toronto Center
12:57 43.6833 -79.4333 76° East 500 575 35,000  Level Toronto Center
12:58 43.7333 -79.2333 71° East 500 575 35,000  Level Toronto Center
12:59 43.8000 -79.0500 63° Northeast 500 575 35,000  Level Toronto Center
13:00 43.8500 -78.8667 69° East 500 575 35,000  Level Toronto Center
13:01 43.9000 -78.7000 67° East 500 575 35,000  Level Toronto Center
13:02 43.9667 -78.5167 63° Northeast 500 575 35,000  Level Toronto Center
13:03 44.0000 -78.3333 76° East 510 587 35,000  Level Toronto Center
13:04 44.0500 -78.1667 67° East 500 575 35,000  Level Toronto Center
13:05 44.1167 -77.9833 63° Northeast 500 575 35,000  Level Toronto Center
13:06 44.1667 -77.8167 67° East 500 575 35,000  Level Toronto Center
13:07 44.2167 -77.6333 69° East 500 575 35,000  Level Toronto Center
13:08 44.2667 -77.4500 69° East 490 564 35,000  Level Toronto Center
13:09 44.3167 -77.2833 67° East 490 564 35,000  Level Toronto Center
13:10 44.3667 -77.0833 71° East 490 564 35,000  Level Toronto Center
13:11 44.4167 -76.9167 67° East 490 564 35,000  Level Toronto Center
13:12 44.4667 -76.7333 69° East 480 552 35,000  Level Toronto Center
13:13 44.5000 -76.5667 74° East 490 564 35,000  Level Toronto Center
13:14 44.5667 -76.3833 63° Northeast 490 564 35,000  Level Toronto Center
13:15 44.6167 -76.2167 67° East 490 564 35,000 -180 Level Toronto Center
13:16 44.6500 -76.0500 74° East 480 552 34,700 -1,200 Descending Toronto Center
13:17 44.7167 -75.8833 61° Northeast 480 552 32,600 -2,400 Descending Toronto Center
13:18 44.7667 -75.6833 71° East 460 529 29,900 -2,700 Descending Toronto Center
13:19 44.8000 -75.5500 71° East 450 518 27,200 -2,760 Descending Toronto Center
13:20 44.8500 -75.3500 71° East 470 541 24,400 -2,700 Descending Toronto Center
13:21 44.9000 -75.1833 67° East 470 541 21,800 -2,700 Descending Toronto Center
13:22 44.9333 -75.0167 74° East 450 518 19,000 -2,640 Descending Toronto Center
13:23 44.9833 -74.8667 65° Northeast 430 495 16,600 -2,400 Descending Toronto Center
13:24 45.0500 -74.7167 58° Northeast 410 472 14,200 -1,860 Descending Toronto Center
13:25 45.0833 -74.6000 68° East 380 437 12,900 -660 Descending Toronto Center
13:26 45.1167 -74.5000 65° Northeast 300 345 12,900  Level Toronto Center
13:27 45.0500 -74.4833 170° South 220 253 12,900  Level Toronto Center
13:28 45.0167 -74.5667 241° Southwest 230 265 12,900  Level Toronto Center
13:29 44.9833 -74.6333 235° Southwest 240 276 12,900  Level Toronto Center
13:30 44.9500 -74.7000 235° Southwest 220 253 12,900  Level Toronto Center
13:31 44.9667 -74.8000 283° West 230 265 12,900  Level Toronto Center
13:32 45.0333 -74.7500 28° Northeast 260 299 12,900  Level Toronto Center
13:33 45.0667 -74.6667 60° Northeast 280 322 12,900  Level Toronto Center
13:34 45.1000 -74.5833 60° Northeast 270 311 12,900  Level Toronto Center
13:35 45.1000 -74.5000 90° East 240 276 12,900 -480 Level Toronto Center
13:36 45.0500 -74.5333 205° Southwest 220 253 12,000 -1,020 Descending Toronto Center
13:37 45.1000 -74.5833 325° Northwest 240 276 10,900 -1,140 Descending Toronto Center
13:38 45.1500 -74.4833 55° Northeast 270 311 9,800 -1,500 Descending Toronto Center
13:39 45.2000 -74.4000 50° Northeast 280 322 8,000 -960 Descending Toronto Center
13:40 45.2000 -74.2833 90° East 270 311 7,900 -60 Descending Toronto Center
13:41 45.2333 -74.1833 65° Northeast 270 311 7,900  Level Toronto Center
13:42 45.2500 -74.0833 77° East 270 311 7,900 -300 Level Toronto Center
13:43 45.2167 -74.0833 180° South 180 207 7,400 -1,200 Descending Toronto Center
13:44 45.2500 -74.1667 300° West 230 265 5,600 -1,920 Descending Toronto Center
13:45 45.3000 -74.1333 25° Northeast 230 265 3,600 -1,380 Descending Toronto Center
13:46 45.2833 -74.0667 110° East 180 207 2,900 -300 Descending Toronto Center
13:47 45.2833 -74.0333 90° East 160 184 3,000  Climbing Montreal Center
13:48 45.3000 -73.9833 65° Northeast 150 173 3,000  Level Montreal Center
13:49 45.3167 -73.9500 55° Northeast 150 173 3,000 -60 Level Montreal Center
13:50 45.3500 -73.9000 47° Northeast 150 173 2,900 -540 Descending Montreal Center
13:51 45.3833 -73.8500 46° Northeast 150 173 2,000 -840 Descending Montreal Center
13:52 45.4000 -73.8000 65° Northeast 130 150 1,300 -660 Descending Montreal Center
13:53 45.4333 -73.7667 35° Northeast 110 127 700 -600 Descending Montreal Center
13:54 45.4500 -73.7500 35° Northeast 110 127 100 -300 Descending Montreal Center
13:55 45.4667 -73.7500 360° North 10 12 100  Level Montreal Center